Time;durP1;ratioP1;P1;durP2;ratioP2;P2;SDS_P1;SDS_P2;PMS_P1;PMS_P2;Temp;Humidity;BMP_temperature;BMP_pressure;BME280_temperature;BME280_humidity;BME280_pressure;Samples;Min_cycle;Max_cycle;Signal;HPM_P1;HPM_P2
2022/11/19 00:01:59;;;;;;;6.75;4.05;;;9.60;99.90;;;;;;4973153;28;20050;-77
2022/11/19 00:04:26;;;;;;;8.05;4.15;;;9.60;99.90;;;;;;4955036;28;20423;-77
2022/11/19 00:06:54;;;;;;;6.88;4.30;;;9.50;99.90;;;;;;4973059;28;20051;-77
2022/11/19 00:09:21;;;;;;;6.03;3.92;;;9.50;99.90;;;;;;4971837;28;20491;-78
2022/11/19 00:14:33;;;;;;;7.88;5.28;;;9.50;99.90;;;;;;4957314;28;20046;-77
2022/11/19 00:17:03;;;;;;;9.00;5.50;;;9.50;99.90;;;;;;4968146;28;20109;-77
2022/11/19 00:19:30;;;;;;;7.53;5.20;;;9.40;99.90;;;;;;4964415;28;20057;-78
2022/11/19 00:21:58;;;;;;;9.05;5.22;;;9.30;99.90;;;;;;4981778;28;20045;-78
2022/11/19 00:24:27;;;;;;;8.10;5.25;;;9.30;99.90;;;;;;4973027;28;20062;-79
2022/11/19 00:26:54;;;;;;;9.00;5.50;;;9.30;99.90;;;;;;4952935;28;20138;-78
2022/11/19 00:29:21;;;;;;;9.27;5.53;;;9.30;99.90;;;;;;4972824;28;20054;-78
2022/11/19 00:31:48;;;;;;;8.65;5.43;;;9.30;99.90;;;;;;4977533;28;20495;-78
2022/11/19 00:34:15;;;;;;;8.73;4.70;;;9.30;99.90;;;;;;4970209;28;20711;-78
2022/11/19 00:36:42;;;;;;;12.95;6.07;;;9.30;99.90;;;;;;4955684;28;20415;-78
2022/11/19 00:39:10;;;;;;;12.68;5.90;;;9.20;99.90;;;;;;4974472;28;20049;-78
2022/11/19 00:41:37;;;;;;;10.70;6.00;;;9.20;99.90;;;;;;4966767;28;20219;-78
2022/11/19 00:44:04;;;;;;;11.48;6.20;;;9.10;99.90;;;;;;4967163;28;20081;-77
2022/11/19 00:46:31;;;;;;;9.90;6.10;;;9.10;99.90;;;;;;4972605;28;20043;-78
2022/11/19 00:48:59;;;;;;;11.18;6.18;;;9.10;99.90;;;;;;4966521;28;20166;-78
2022/11/19 00:51:28;;;;;;;11.73;6.28;;;9.10;99.90;;;;;;4961096;28;20047;-78
2022/11/19 00:53:55;;;;;;;11.55;6.63;;;9.00;99.90;;;;;;4970199;28;20106;-78
2022/11/19 00:56:25;;;;;;;11.18;6.70;;;9.00;99.90;;;;;;4967844;28;20587;-78
2022/11/19 00:58:52;;;;;;;9.30;6.28;;;9.00;99.90;;;;;;4983528;23;20060;-80
2022/11/19 01:01:23;;;;;;;11.52;6.80;;;8.90;99.90;;;;;;4970520;28;20074;-80
2022/11/19 01:03:50;;;;;;;10.93;6.22;;;8.90;99.90;;;;;;4969786;28;20050;-80
2022/11/19 01:06:19;;;;;;;11.85;7.03;;;8.90;99.90;;;;;;4960808;28;20038;-80
2022/11/19 01:08:47;;;;;;;10.23;6.13;;;8.90;99.90;;;;;;4971725;28;20051;-80
2022/11/19 01:11:15;;;;;;;11.70;6.47;;;8.90;99.90;;;;;;4967329;28;20208;-80
2022/11/19 01:13:44;;;;;;;13.15;6.80;;;8.90;99.90;;;;;;4968138;28;20047;-80
2022/11/19 01:16:12;;;;;;;12.07;6.80;;;8.90;99.90;;;;;;4970340;28;20043;-80
2022/11/19 01:18:40;;;;;;;10.55;6.03;;;8.90;99.90;;;;;;4968861;28;20039;-80
2022/11/19 01:21:09;;;;;;;12.73;6.88;;;8.80;99.90;;;;;;4969380;28;20059;-80
2022/11/19 01:23:36;;;;;;;12.98;7.50;;;8.80;99.90;;;;;;4971482;28;20047;-80
2022/11/19 01:26:03;;;;;;;12.40;7.50;;;8.80;99.90;;;;;;4971339;28;20050;-80
2022/11/19 01:28:33;;;;;;;13.32;7.55;;;8.80;99.90;;;;;;4971457;28;20051;-80
2022/11/19 01:31:06;;;;;;;13.77;8.15;;;8.80;99.90;;;;;;4961109;28;20529;-80
2022/11/19 01:33:33;;;;;;;14.02;8.40;;;8.70;99.90;;;;;;4950784;29;20059;-80
2022/11/19 01:36:03;;;;;;;13.18;8.23;;;8.70;99.90;;;;;;4965617;28;20050;-80
2022/11/19 01:38:33;;;;;;;15.32;8.23;;;8.70;99.90;;;;;;4969809;28;20049;-80
2022/11/19 01:41:01;;;;;;;12.55;7.88;;;8.70;99.90;;;;;;4970084;28;20099;-80
2022/11/19 01:43:41;;;;;;;14.80;7.97;;;8.70;99.90;;;;;;4968741;28;20043;-80
2022/11/19 01:46:10;;;;;;;16.40;8.18;;;8.70;99.90;;;;;;4970023;28;20089;-80
2022/11/19 01:48:38;;;;;;;15.05;8.60;;;8.70;99.90;;;;;;4970397;28;20047;-80
2022/11/19 01:51:10;;;;;;;14.75;8.35;;;8.70;99.90;;;;;;4961925;28;20050;-80
2022/11/19 01:53:37;;;;;;;14.75;8.48;;;8.70;99.90;;;;;;4967810;28;20806;-80
2022/11/19 01:56:07;;;;;;;13.85;8.15;;;8.70;99.90;;;;;;4948782;28;20054;-80
2022/11/19 01:58:37;;;;;;;17.52;9.30;;;8.60;99.90;;;;;;4945284;28;20094;-80
2022/11/19 02:01:06;;;;;;;15.02;9.27;;;8.60;99.90;;;;;;4943588;28;20053;-80
2022/11/19 02:03:35;;;;;;;16.83;9.73;;;8.70;99.90;;;;;;4949178;28;20763;-80
2022/11/19 02:06:05;;;;;;;15.88;10.02;;;8.70;99.90;;;;;;4959573;28;20047;-80
2022/11/19 02:08:38;;;;;;;18.70;10.77;;;8.60;99.90;;;;;;4961915;28;20124;-80
2022/11/19 02:11:38;;;;;;;18.90;10.32;;;8.60;99.90;;;;;;4967880;28;20060;-80
2022/11/19 02:14:16;;;;;;;20.63;10.40;;;8.50;99.90;;;;;;4953800;28;20138;-80
2022/11/19 02:16:51;;;;;;;18.05;11.45;;;8.50;99.90;;;;;;4963407;28;20141;-80
2022/11/19 02:19:45;;;;;;;21.65;12.23;;;8.50;99.90;;;;;;4967662;28;20126;-80
2022/11/19 02:22:28;;;;;;;22.05;11.98;;;8.40;99.90;;;;;;4968071;28;20035;-80
2022/11/19 02:24:56;;;;;;;20.38;11.82;;;8.40;99.90;;;;;;4965668;28;20043;-80
2022/11/19 02:28:00;;;;;;;22.27;12.55;;;8.30;99.90;;;;;;4967319;28;20043;-80
2022/11/19 02:30:29;;;;;;;24.00;14.15;;;8.40;99.90;;;;;;4968420;28;20434;-80
2022/11/19 02:33:07;;;;;;;23.13;13.90;;;8.30;99.90;;;;;;4969409;28;20418;-80
2022/11/19 02:35:43;;;;;;;25.90;14.93;;;8.30;99.90;;;;;;4958260;28;20063;-80
2022/11/19 02:38:18;;;;;;;25.63;14.35;;;8.30;99.90;;;;;;4961855;28;20403;-80
2022/11/19 02:40:49;;;;;;;24.92;14.52;;;8.40;99.90;;;;;;4965942;28;20544;-80
2022/11/19 02:43:20;;;;;;;26.58;15.48;;;8.10;99.90;;;;;;4969755;28;20047;-80
2022/11/19 02:45:51;;;;;;;24.92;15.05;;;8.10;99.90;;;;;;4969438;28;20544;-80
2022/11/19 02:48:21;;;;;;;24.20;14.32;;;8.10;99.90;;;;;;4969316;28;20042;-80
2022/11/19 02:50:50;;;;;;;24.83;14.63;;;8.20;99.90;;;;;;4968481;28;20042;-80
2022/11/19 02:53:17;;;;;;;25.50;15.23;;;8.20;99.90;;;;;;4968264;28;20522;-80
2022/11/19 02:56:09;;;;;;;28.17;16.63;;;8.20;99.90;;;;;;4969373;28;20109;-80
2022/11/19 03:06:52;;;;;;;30.48;16.90;;;8.10;99.90;;;;;;4965512;28;20494;-80
2022/11/19 03:09:19;;;;;;;28.38;16.90;;;8.10;99.90;;;;;;4964293;28;20051;-80
2022/11/19 03:11:52;;;;;;;29.83;16.90;;;8.10;99.90;;;;;;4967865;28;20051;-80
2022/11/19 03:17:23;;;;;;;30.05;17.55;;;8.10;99.90;;;;;;4928605;29;20492;-80
2022/11/19 03:19:54;;;;;;;29.63;16.80;;;8.10;99.90;;;;;;4959807;28;20676;-80
2022/11/19 03:22:24;;;;;;;30.35;17.75;;;8.10;99.90;;;;;;4959643;28;20130;-80
2022/11/19 03:24:55;;;;;;;32.20;18.90;;;8.00;99.90;;;;;;4951745;28;20057;-80
2022/11/19 03:27:26;;;;;;;32.05;18.20;;;8.10;99.90;;;;;;4961124;28;20039;-80
2022/11/19 03:29:55;;;;;;;31.88;17.67;;;8.10;99.90;;;;;;4967208;28;20077;-80
2022/11/19 03:32:26;;;;;;;29.58;17.70;;;8.00;99.90;;;;;;4960565;28;20046;-80
2022/11/19 03:35:03;;;;;;;31.13;17.67;;;8.00;99.90;;;;;;4968909;28;20070;-80
2022/11/19 03:37:33;;;;;;;30.30;17.35;;;8.00;99.90;;;;;;4957955;28;20431;-80
2022/11/19 03:40:01;;;;;;;30.00;18.00;;;8.00;99.90;;;;;;4959002;28;20043;-80
2022/11/19 03:42:28;;;;;;;31.13;17.90;;;7.90;99.90;;;;;;4969430;28;20043;-80
2022/11/19 03:44:59;;;;;;;29.60;18.48;;;7.90;99.90;;;;;;4967296;28;20054;-80
2022/11/19 03:47:31;;;;;;;29.90;17.63;;;7.90;99.90;;;;;;4965466;28;20043;-80
2022/11/19 03:50:00;;;;;;;32.80;17.98;;;7.80;99.90;;;;;;4966765;28;20043;-80
2022/11/19 03:52:26;;;;;;;30.40;18.90;;;7.80;99.90;;;;;;4957768;28;20057;-80
2022/11/19 03:54:53;;;;;;;31.10;18.20;;;7.80;99.90;;;;;;4957958;28;20062;-80
2022/11/19 03:57:23;;;;;;;30.15;19.02;;;7.80;99.90;;;;;;4966920;28;20142;-80
2022/11/19 03:59:49;;;;;;;33.85;19.15;;;7.80;99.90;;;;;;4968505;28;20047;-80
2022/11/19 04:02:17;;;;;;;33.53;19.38;;;7.80;99.90;;;;;;4965139;28;20084;-80
2022/11/19 04:04:45;;;;;;;33.17;19.67;;;7.80;99.90;;;;;;4962919;28;20047;-80
2022/11/19 04:07:14;;;;;;;31.13;20.02;;;7.80;99.90;;;;;;4964602;28;20051;-80
2022/11/19 04:09:42;;;;;;;35.75;20.25;;;7.80;99.90;;;;;;4967293;28;20045;-80
2022/11/19 04:12:15;;;;;;;34.08;20.75;;;7.70;99.90;;;;;;4967388;28;20047;-80
2022/11/19 04:14:43;;;;;;;34.58;20.38;;;7.70;99.90;;;;;;4970907;28;20134;-80
2022/11/19 04:17:10;;;;;;;34.03;20.83;;;7.70;99.90;;;;;;4954167;28;20404;-80
2022/11/19 04:19:37;;;;;;;35.95;20.63;;;7.70;99.90;;;;;;4971861;28;20567;-80
2022/11/19 04:22:05;;;;;;;33.65;20.02;;;7.60;99.90;;;;;;4970504;28;20043;-80
2022/11/19 04:24:32;;;;;;;33.03;20.40;;;7.60;99.90;;;;;;4964536;28;20042;-80
2022/11/19 04:26:59;;;;;;;34.05;20.58;;;7.60;99.90;;;;;;4954525;28;20046;-80
2022/11/19 04:29:26;;;;;;;35.55;20.58;;;7.60;99.90;;;;;;4971829;28;20045;-80
2022/11/19 04:31:53;;;;;;;34.42;20.88;;;7.60;99.90;;;;;;4969929;28;20047;-80
2022/11/19 04:34:20;;;;;;;32.05;19.88;;;7.50;99.90;;;;;;4964733;28;20096;-80
2022/11/19 04:36:47;;;;;;;34.90;21.42;;;7.50;99.90;;;;;;4970687;28;20055;-80
2022/11/19 04:39:15;;;;;;;37.17;21.50;;;7.40;99.90;;;;;;4962470;28;20039;-80
2022/11/19 04:41:42;;;;;;;35.95;21.55;;;7.40;99.90;;;;;;4968901;28;20054;-80
2022/11/19 04:44:09;;;;;;;36.00;21.20;;;7.30;99.90;;;;;;4972895;28;20053;-80
2022/11/19 04:46:36;;;;;;;34.75;22.08;;;7.30;99.90;;;;;;4954613;28;20051;-80
2022/11/19 04:49:03;;;;;;;35.78;21.38;;;7.30;99.90;;;;;;4969528;28;20050;-80
2022/11/19 04:51:30;;;;;;;34.58;21.50;;;7.40;99.90;;;;;;4970767;28;20517;-80
2022/11/19 04:53:57;;;;;;;37.33;21.08;;;7.40;99.90;;;;;;4964070;28;20051;-80
2022/11/19 04:56:25;;;;;;;34.42;21.23;;;7.40;99.90;;;;;;4970657;28;20475;-80
2022/11/19 04:58:52;;;;;;;35.00;21.08;;;7.40;99.90;;;;;;4970427;28;20039;-80
2022/11/19 05:01:20;;;;;;;36.35;21.52;;;7.30;99.90;;;;;;4949946;28;20517;-80
2022/11/19 05:03:47;;;;;;;35.83;21.45;;;7.40;99.90;;;;;;4967698;28;20047;-80
2022/11/19 05:06:14;;;;;;;36.33;21.33;;;7.40;99.90;;;;;;4971453;28;20047;-81
2022/11/19 05:08:40;;;;;;;33.50;20.95;;;7.40;99.90;;;;;;4959012;28;20343;-80
2022/11/19 05:11:07;;;;;;;34.35;21.20;;;7.40;99.90;;;;;;4965401;28;20054;-81
2022/11/19 05:13:36;;;;;;;33.55;20.63;;;7.40;99.90;;;;;;4968431;28;20129;-80
2022/11/19 05:16:03;;;;;;;30.60;19.85;;;7.50;99.90;;;;;;4971180;28;20823;-80
2022/11/19 05:18:30;;;;;;;33.28;21.00;;;7.50;99.90;;;;;;4971826;28;20042;-80
2022/11/19 05:20:57;;;;;;;35.20;20.85;;;7.50;99.90;;;;;;4966688;28;20057;-80
2022/11/19 05:23:24;;;;;;;35.15;20.60;;;7.50;99.90;;;;;;4950212;28;20525;-80
2022/11/19 05:25:51;;;;;;;33.78;20.63;;;7.50;99.90;;;;;;4969240;28;20616;-80
2022/11/19 05:28:18;;;;;;;33.45;20.08;;;7.40;99.90;;;;;;4963165;28;20043;-80
2022/11/19 05:30:46;;;;;;;34.88;20.77;;;7.40;99.90;;;;;;4970211;28;20047;-80
2022/11/19 05:33:13;;;;;;;30.70;19.45;;;7.40;99.90;;;;;;4970474;28;20448;-80
2022/11/19 05:35:40;;;;;;;33.33;19.63;;;7.40;99.90;;;;;;4970004;28;20049;-80
2022/11/19 05:38:07;;;;;;;35.80;20.52;;;7.40;99.90;;;;;;4971081;28;20050;-80
2022/11/19 05:40:34;;;;;;;33.35;20.40;;;7.40;99.90;;;;;;4968306;28;20054;-80
2022/11/19 05:43:04;;;;;;;36.17;20.38;;;7.40;99.90;;;;;;4963069;28;20042;-80
2022/11/19 05:45:31;;;;;;;37.00;21.10;;;7.40;99.90;;;;;;4957367;28;20047;-80
2022/11/19 05:48:00;;;;;;;33.67;20.52;;;7.40;99.90;;;;;;4970610;28;20145;-80
2022/11/19 05:50:27;;;;;;;34.70;21.88;;;7.30;99.90;;;;;;4967407;28;20151;-81
2022/11/19 05:52:53;;;;;;;36.15;21.13;;;7.30;99.90;;;;;;4971553;28;20062;-80
2022/11/19 05:55:20;;;;;;;35.72;22.65;;;7.40;99.90;;;;;;4961617;28;20054;-80
2022/11/19 05:57:47;;;;;;;38.28;21.83;;;7.40;99.90;;;;;;4962044;28;20078;-80
2022/11/19 06:00:15;;;;;;;37.92;21.75;;;7.30;99.90;;;;;;4970568;28;20046;-80
2022/11/19 06:02:42;;;;;;;37.33;21.52;;;7.30;99.90;;;;;;4969672;28;20051;-80
2022/11/19 06:05:11;;;;;;;36.90;22.25;;;7.30;99.90;;;;;;4952796;28;20059;-80
2022/11/19 06:07:38;;;;;;;36.65;21.88;;;7.30;99.90;;;;;;4961635;28;20510;-81
2022/11/19 06:10:05;;;;;;;35.25;21.95;;;7.30;99.90;;;;;;4967336;28;20041;-80
2022/11/19 06:12:32;;;;;;;40.28;23.05;;;7.30;99.90;;;;;;4967030;28;20053;-80
2022/11/19 06:15:00;;;;;;;42.63;23.52;;;7.30;99.90;;;;;;4970378;28;20053;-80
2022/11/19 06:17:27;;;;;;;43.60;23.65;;;7.30;99.90;;;;;;4961902;28;20790;-80
2022/11/19 06:19:54;;;;;;;40.20;23.25;;;7.30;99.90;;;;;;4969933;28;20042;-80
2022/11/19 06:22:22;;;;;;;38.60;22.90;;;7.30;99.90;;;;;;4964425;28;20043;-80
2022/11/19 06:24:49;;;;;;;38.88;22.92;;;7.30;99.90;;;;;;4970468;28;20214;-80
2022/11/19 06:27:16;;;;;;;41.03;23.25;;;7.30;99.90;;;;;;4969643;28;20072;-80
2022/11/19 06:29:43;;;;;;;40.70;23.33;;;7.30;99.90;;;;;;4959149;28;20047;-85
2022/11/19 06:32:10;;;;;;;40.97;23.65;;;7.20;99.90;;;;;;4956717;28;20507;-84
2022/11/19 06:34:37;;;;;;;40.00;23.48;;;7.20;99.90;;;;;;4966324;28;20043;-81
2022/11/19 06:37:04;;;;;;;39.15;22.77;;;7.20;99.90;;;;;;4968147;28;20043;-81
2022/11/19 06:39:32;;;;;;;41.65;23.60;;;7.10;99.90;;;;;;4965442;28;20469;-80
2022/11/19 06:42:34;;;;;;;40.15;23.42;;;7.10;99.90;;;;;;4965482;28;20061;-81
2022/11/19 06:44:46;;;;;;;43.72;24.23;;;7.10;99.90;;;;;;4961512;28;20057;-80
2022/11/19 06:47:13;;;;;;;40.83;22.33;;;7.10;99.90;;;;;;4964157;28;20738;-80
2022/11/19 06:49:40;;;;;;;40.97;21.98;;;7.10;99.90;;;;;;4963476;28;20075;-80
2022/11/19 06:52:06;;;;;;;40.47;22.60;;;7.10;99.90;;;;;;4967942;28;20053;-80
2022/11/19 06:54:35;;;;;;;38.10;21.65;;;7.10;99.90;;;;;;4969849;28;20047;-79
2022/11/19 06:57:02;;;;;;;39.88;20.67;;;7.00;99.90;;;;;;4968684;28;20043;-80
2022/11/19 06:59:29;;;;;;;38.05;22.00;;;7.00;99.90;;;;;;4962225;28;20045;-80
2022/11/19 07:01:55;;;;;;;42.17;22.17;;;7.00;99.90;;;;;;4967313;28;20050;-80
2022/11/19 07:04:22;;;;;;;35.47;21.08;;;7.10;99.90;;;;;;4969921;28;20089;-80
2022/11/19 07:06:49;;;;;;;38.25;22.42;;;7.10;99.90;;;;;;4968658;28;20054;-79
2022/11/19 07:11:53;;;;;;;40.08;21.85;;;7.30;99.90;;;;;;4886047;29;20666;-76
2022/11/19 07:14:20;;;;;;;37.85;21.30;;;7.10;99.90;;;;;;4897863;29;20048;-76
2022/11/19 07:16:47;;;;;;;37.97;21.85;;;7.00;99.90;;;;;;4903534;29;20052;-78
2022/11/19 07:19:14;;;;;;;34.45;20.00;;;7.00;99.90;;;;;;4900401;29;20048;-78
2022/11/19 07:21:41;;;;;;;37.47;21.30;;;7.00;99.90;;;;;;4870991;29;20045;-81
2022/11/19 07:24:09;;;;;;;36.20;21.40;;;7.00;99.90;;;;;;4888522;29;20096;-79
2022/11/19 07:26:37;;;;;;;38.20;20.85;;;7.10;99.90;;;;;;4878714;29;20052;-79
2022/11/19 07:29:06;;;;;;;37.47;21.00;;;7.10;99.90;;;;;;4881944;29;20761;-79
2022/11/19 07:31:34;;;;;;;40.55;22.10;;;7.10;99.90;;;;;;4874880;29;20056;-79
2022/11/19 07:34:01;;;;;;;35.85;19.90;;;7.10;99.90;;;;;;4872951;29;20120;-79
2022/11/19 07:36:28;;;;;;;35.25;20.30;;;7.00;99.90;;;;;;4893197;29;20052;-79
2022/11/19 07:38:54;;;;;;;34.60;19.55;;;7.10;99.90;;;;;;4890305;29;20064;-77
2022/11/19 07:44:07;;;;;;;34.97;19.83;;;7.00;99.90;;;;;;4874634;29;20045;-82
2022/11/19 07:46:35;;;;;;;35.15;20.55;;;7.00;99.90;;;;;;4879732;29;20045;-81
2022/11/19 07:49:02;;;;;;;30.75;18.20;;;7.10;99.90;;;;;;4883905;29;20509;-80
2022/11/19 07:51:29;;;;;;;33.80;19.70;;;7.00;99.90;;;;;;4896716;29;20047;-79
2022/11/19 07:54:08;;;;;;;35.78;18.83;;;7.00;99.90;;;;;;4897328;29;20051;-80
2022/11/19 07:56:35;;;;;;;33.88;18.83;;;7.00;99.90;;;;;;4887799;29;20060;-79
2022/11/19 07:59:02;;;;;;;31.38;18.02;;;6.90;99.90;;;;;;4860195;29;20055;-79
2022/11/19 08:01:35;;;;;;;32.13;19.52;;;6.90;99.90;;;;;;4988123;23;20061;-80
2022/11/19 08:04:04;;;;;;;33.22;18.85;;;6.90;99.90;;;;;;4973409;28;20054;-80
2022/11/19 08:06:33;;;;;;;32.72;19.33;;;6.90;99.90;;;;;;4971781;28;20098;-79
2022/11/19 08:09:04;;;;;;;36.28;19.10;;;6.90;99.90;;;;;;4953696;28;20057;-81
2022/11/19 08:11:33;;;;;;;35.13;18.03;;;6.90;99.90;;;;;;4953359;29;20047;-82
2022/11/19 08:14:02;;;;;;;33.53;19.95;;;6.90;99.90;;;;;;4963937;28;20298;-82
2022/11/19 08:19:17;;;;;;;32.88;19.73;;;7.00;99.90;;;;;;4973128;28;20591;-83
2022/11/19 08:21:46;;;;;;;33.35;19.08;;;6.90;99.90;;;;;;4967504;28;20050;-83
2022/11/19 08:24:14;;;;;;;34.90;19.95;;;7.00;99.90;;;;;;4969817;28;20050;-77
2022/11/19 08:26:42;;;;;;;33.13;19.20;;;6.90;99.90;;;;;;4972270;28;20101;-77
2022/11/19 08:29:09;;;;;;;34.38;18.98;;;7.00;99.90;;;;;;4972055;28;20448;-77
2022/11/19 08:31:39;;;;;;;31.77;18.58;;;6.90;99.90;;;;;;4951893;28;20392;-77
2022/11/19 08:34:06;;;;;;;30.95;18.00;;;6.90;99.90;;;;;;4972644;28;20054;-84
2022/11/19 08:36:33;;;;;;;32.35;18.80;;;6.90;99.90;;;;;;4969275;28;20038;-79
2022/11/19 08:39:01;;;;;;;32.90;18.48;;;6.90;99.90;;;;;;4971032;28;20046;-77
2022/11/19 08:44:16;;;;;;;31.45;18.65;;;6.90;99.90;;;;;;4965342;28;20049;-79
2022/11/19 08:46:44;;;;;;;35.42;20.40;;;7.00;99.90;;;;;;4961802;28;20047;-79
2022/11/19 08:49:12;;;;;;;32.67;20.00;;;6.90;99.90;;;;;;4965221;28;20043;-80
2022/11/19 08:51:39;;;;;;;30.92;19.13;;;6.90;99.90;;;;;;4966047;28;20053;-83
2022/11/19 08:54:06;;;;;;;33.80;18.83;;;6.90;99.90;;;;;;4971282;28;20051;-82
2022/11/19 08:56:33;;;;;;;34.28;18.95;;;6.90;99.90;;;;;;4954004;28;20051;-83
2022/11/19 08:59:00;;;;;;;28.77;17.98;;;6.80;99.90;;;;;;4970654;28;20523;-81
2022/11/19 09:01:27;;;;;;;33.20;18.58;;;6.80;99.90;;;;;;4966999;28;20035;-81
2022/11/19 09:03:55;;;;;;;30.88;18.73;;;6.80;99.90;;;;;;4947626;29;20047;-81
2022/11/19 09:06:22;;;;;;;29.27;17.42;;;6.80;99.90;;;;;;4951409;28;20043;-82
2022/11/19 09:08:52;;;;;;;27.58;17.67;;;6.80;99.90;;;;;;4966521;28;20053;-82
2022/11/19 09:11:20;;;;;;;26.73;17.08;;;6.80;99.90;;;;;;4963525;28;20043;-82
2022/11/19 09:13:47;;;;;;;27.92;16.63;;;6.70;99.90;;;;;;4951932;28;20054;-82
2022/11/19 09:16:15;;;;;;;29.58;17.77;;;6.70;99.90;;;;;;4966607;28;20058;-84
2022/11/19 09:18:43;;;;;;;29.20;17.27;;;6.50;99.90;;;;;;4952808;28;20053;-86
2022/11/19 09:21:11;;;;;;;30.55;17.35;;;6.60;99.90;;;;;;4969498;28;20801;-84
2022/11/19 09:23:40;;;;;;;25.00;15.68;;;6.50;99.90;;;;;;4948869;28;20043;-82
2022/11/19 09:26:08;;;;;;;24.60;15.15;;;6.60;99.90;;;;;;4970290;28;20042;-82
2022/11/19 09:28:35;;;;;;;25.83;15.52;;;6.60;99.90;;;;;;4969448;28;20050;-83
2022/11/19 09:31:05;;;;;;;28.08;16.42;;;6.60;99.90;;;;;;4954364;28;20035;-83
2022/11/19 09:33:36;;;;;;;27.80;15.90;;;6.60;99.90;;;;;;4969269;28;20117;-82
2022/11/19 09:36:03;;;;;;;;;;;6.60;99.90;;;;;;4945206;28;20055;-83
2022/11/19 09:38:38;;;;;;;25.83;14.32;;;6.50;99.90;;;;;;4965389;28;19926;-83
2022/11/19 09:41:35;;;;;;;24.95;14.55;;;6.50;99.90;;;;;;4963058;28;20055;-84
2022/11/19 09:44:14;;;;;;;25.15;15.55;;;6.50;99.90;;;;;;4965074;28;20503;-82
2022/11/19 09:46:47;;;;;;;22.17;13.52;;;6.50;99.90;;;;;;4964382;28;20082;-78
2022/11/19 09:49:22;;;;;;;25.33;15.00;;;6.60;99.90;;;;;;4969611;28;20043;-78
2022/11/19 09:51:58;;;;;;;24.83;14.93;;;6.50;99.90;;;;;;4968368;28;20499;-79
2022/11/19 09:54:29;;;;;;;21.20;13.93;;;6.60;99.90;;;;;;4963417;28;20046;-78
2022/11/19 09:56:56;;;;;;;26.60;15.48;;;6.60;99.90;;;;;;4964876;28;20043;-78
2022/11/19 09:59:27;;;;;;;25.85;15.30;;;6.50;99.90;;;;;;4970852;28;20047;-77
2022/11/19 10:01:55;;;;;;;24.08;14.98;;;6.50;99.90;;;;;;4967993;28;20049;-77
2022/11/19 10:04:24;;;;;;;26.15;14.90;;;6.50;99.90;;;;;;4974528;28;20049;-77
2022/11/19 10:07:07;;;;;;;26.83;14.95;;;6.50;99.90;;;;;;4970458;28;20073;-77
2022/11/19 10:09:44;;;;;;;25.13;15.00;;;6.50;99.90;;;;;;4967666;28;20042;-78
2022/11/19 10:12:26;;;;;;;22.30;14.07;;;6.50;99.90;;;;;;4969643;28;20125;-80
2022/11/19 10:15:09;;;;;;;23.15;14.40;;;6.50;99.90;;;;;;4969678;28;20418;-78
2022/11/19 10:17:42;;;;;;;24.23;14.50;;;6.50;99.90;;;;;;4966623;28;20499;-79
2022/11/19 10:20:22;;;;;;;24.15;15.00;;;6.80;99.90;;;;;;4970068;28;20407;-79
2022/11/19 10:22:56;;;;;;;24.20;13.95;;;6.50;99.90;;;;;;4967420;28;20141;-82
2022/11/19 10:25:28;;;;;;;24.20;14.48;;;6.50;99.90;;;;;;4973960;28;20042;-82
2022/11/19 10:28:06;;;;;;;22.95;14.00;;;6.50;99.90;;;;;;4979641;28;20530;-86
2022/11/19 10:30:33;;;;;;;23.13;14.15;;;6.50;99.90;;;;;;4970906;28;20074;-81
2022/11/19 10:33:02;;;;;;;23.13;14.18;;;6.50;99.90;;;;;;4963171;28;20129;-81
2022/11/19 10:35:34;;;;;;;22.63;14.38;;;6.60;99.90;;;;;;4967272;28;20117;-81
2022/11/19 10:38:03;;;;;;;24.65;14.95;;;6.60;99.90;;;;;;4963483;28;20046;-81
2022/11/19 10:40:36;;;;;;;23.27;13.93;;;6.60;99.90;;;;;;4977350;28;20125;-81
2022/11/19 10:43:14;;;;;;;21.30;14.05;;;6.60;99.90;;;;;;4967187;28;20122;-82
2022/11/19 10:45:40;;;;;;;24.73;14.98;;;6.60;99.90;;;;;;4967946;28;20046;-80
2022/11/19 10:48:13;;;;;;;26.67;15.07;;;6.60;99.90;;;;;;4967847;28;20046;-81
2022/11/19 10:50:40;;;;;;;25.45;14.70;;;6.60;99.90;;;;;;4963877;28;20122;-81
2022/11/19 10:53:13;;;;;;;24.38;14.95;;;6.60;99.90;;;;;;4964422;28;20054;-81
2022/11/19 10:55:46;;;;;;;26.23;14.43;;;6.60;99.90;;;;;;4969735;28;20050;-81
2022/11/19 10:58:22;;;;;;;25.33;14.70;;;6.70;99.90;;;;;;4970799;28;20392;-81
2022/11/19 11:00:50;;;;;;;22.98;14.30;;;6.70;99.90;;;;;;4952688;28;20196;-81
2022/11/19 11:03:23;;;;;;;22.38;14.13;;;6.70;99.90;;;;;;4965970;28;20499;-81
2022/11/19 11:05:56;;;;;;;23.77;14.73;;;6.70;99.90;;;;;;4955306;28;20105;-81
2022/11/19 11:08:23;;;;;;;22.10;13.65;;;6.70;99.90;;;;;;4978069;28;20038;-81
2022/11/19 11:10:52;;;;;;;21.42;13.57;;;6.70;99.90;;;;;;4978681;28;20073;-81
2022/11/19 11:16:22;;;;;;;20.58;12.63;;;6.80;99.90;;;;;;4977851;28;20644;-81
2022/11/19 11:18:50;;;;;;;21.60;13.38;;;6.80;99.90;;;;;;4988847;28;20049;-81
2022/11/19 11:21:32;;;;;;;21.45;12.85;;;6.80;99.90;;;;;;4974646;28;20038;-81
2022/11/19 11:24:01;;;;;;;21.17;13.25;;;6.80;99.90;;;;;;4965777;28;20509;-81
2022/11/19 11:26:32;;;;;;;22.33;14.20;;;6.80;99.90;;;;;;4975000;28;20082;-81
2022/11/19 11:29:01;;;;;;;24.42;13.38;;;6.90;99.90;;;;;;4958079;28;20055;-81
2022/11/19 11:31:37;;;;;;;20.90;13.32;;;6.80;99.90;;;;;;4969908;28;20458;-81
2022/11/19 11:34:05;;;;;;;24.83;14.07;;;6.80;99.90;;;;;;4964089;28;20126;-81
2022/11/19 11:36:35;;;;;;;21.38;12.93;;;6.90;99.90;;;;;;4970697;28;20043;-81
2022/11/19 11:39:04;;;;;;;23.60;13.82;;;6.80;99.90;;;;;;4970482;28;20381;-80
2022/11/19 11:41:40;;;;;;;21.67;13.25;;;6.90;99.90;;;;;;4973639;28;20046;-81
2022/11/19 11:44:15;;;;;;;20.95;12.57;;;6.90;99.90;;;;;;4970990;28;20057;-81
2022/11/19 11:46:45;;;;;;;22.00;13.57;;;6.90;99.90;;;;;;4971492;28;20609;-83
2022/11/19 11:49:22;;;;;;;21.40;12.55;;;6.90;99.90;;;;;;4973417;28;20055;-81
2022/11/19 11:51:56;;;;;;;19.63;13.00;;;6.90;99.90;;;;;;4973095;28;20050;-82
2022/11/19 11:54:23;;;;;;;20.27;13.00;;;7.00;99.90;;;;;;4970351;28;20503;-82
2022/11/19 11:56:51;;;;;;;21.20;13.00;;;7.00;99.90;;;;;;4973555;28;20046;-82
2022/11/19 11:59:24;;;;;;;21.90;12.80;;;7.00;99.00;;;;;;4964685;28;20046;-81
2022/11/19 12:01:56;;;;;;;21.55;13.50;;;7.00;99.90;;;;;;4965498;28;20039;-81
2022/11/19 12:04:23;;;;;;;20.55;13.30;;;7.00;98.90;;;;;;4970334;28;20057;-81
2022/11/19 12:06:57;;;;;;;21.05;13.13;;;6.90;98.00;;;;;;4972797;28;20043;-83
2022/11/19 12:09:29;;;;;;;22.02;12.75;;;6.90;98.80;;;;;;4969778;28;20047;-81
2022/11/19 12:12:01;;;;;;;23.42;13.18;;;6.90;98.60;;;;;;4971817;28;20039;-81
2022/11/19 12:14:31;;;;;;;19.33;12.43;;;6.90;99.00;;;;;;4965847;28;20042;-81
2022/11/19 12:17:21;;;;;;;19.35;12.32;;;6.90;99.00;;;;;;4955631;28;20054;-81
2022/11/19 12:20:02;;;;;;;19.70;12.50;;;6.90;98.90;;;;;;4970514;28;20057;-83
2022/11/19 12:22:38;;;;;;;20.80;11.93;;;7.00;98.80;;;;;;4962050;28;20066;-88
2022/11/19 12:25:20;;;;;;;19.65;12.70;;;7.00;98.50;;;;;;4973792;28;20140;-87
2022/11/19 12:27:57;;;;;;;23.90;12.10;;;7.10;98.80;;;;;;4974806;28;20046;-81
2022/11/19 12:30:30;;;;;;;20.63;12.10;;;7.10;98.50;;;;;;4970679;28;21528;-86
2022/11/19 12:33:12;;;;;;;16.90;11.25;;;7.10;98.30;;;;;;4965230;28;20087;-88
2022/11/19 12:35:48;;;;;;;21.27;12.38;;;7.10;98.00;;;;;;4967462;28;20043;-90
2022/11/19 12:38:28;;;;;;;25.17;12.20;;;7.10;98.20;;;;;;4971763;28;20074;-88
2022/11/19 12:41:02;;;;;;;18.52;11.90;;;7.10;98.20;;;;;;4968583;28;20038;-90
2022/11/19 12:44:06;;;;;;;23.15;12.50;;;7.10;98.60;;;;;;4970790;28;20528;-86
2022/11/19 12:46:45;;;;;;;20.60;11.95;;;7.20;98.50;;;;;;4954423;28;20109;-82
2022/11/19 12:49:33;;;;;;;18.80;12.38;;;7.20;97.90;;;;;;4953579;29;20043;-86
2022/11/19 12:52:07;;;;;;;19.30;12.57;;;7.20;98.00;;;;;;4954761;28;20554;-84
2022/11/19 12:54:45;;;;;;;21.85;12.30;;;7.20;98.10;;;;;;4972493;28;20070;-88
2022/11/19 12:57:26;;;;;;;20.55;11.77;;;7.20;98.10;;;;;;4955509;28;20512;-87
2022/11/19 13:00:12;;;;;;;20.85;12.45;;;7.30;97.50;;;;;;4969940;28;20310;-86
2022/11/19 13:02:47;;;;;;;19.88;12.38;;;7.30;98.00;;;;;;4962117;28;20122;-86
2022/11/19 13:05:18;;;;;;;20.15;12.20;;;7.30;97.90;;;;;;4972046;28;20043;-94
2022/11/19 13:07:54;;;;;;;17.45;11.85;;;7.30;98.00;;;;;;4954216;28;20043;-89
2022/11/19 13:10:24;;;;;;;17.70;11.25;;;7.30;97.80;;;;;;4967886;23;20449;-82
2022/11/19 13:12:53;;;;;;;18.40;11.57;;;7.30;97.10;;;;;;4935636;29;20051;-81
2022/11/19 13:15:24;;;;;;;21.17;13.02;;;7.30;96.40;;;;;;4941466;29;20051;-82
2022/11/19 13:17:53;;;;;;;20.45;12.63;;;7.30;96.60;;;;;;4916777;29;20154;-82
2022/11/19 13:20:25;;;;;;;20.98;12.50;;;7.30;97.40;;;;;;4946076;28;20051;-81
2022/11/19 13:22:52;;;;;;;;;;;7.20;96.00;;;;;;4952863;29;20050;-82
2022/11/19 13:25:22;;;;;;;19.83;11.95;;;7.10;96.10;;;;;;4951352;29;19932;-83